createdAt,value
2018-09-22T00:01:23.298Z,2.53
2018-09-22T00:03:52.083Z,2.83
2018-09-22T00:06:20.800Z,3.07
2018-09-22T00:08:49.507Z,2.53
2018-09-22T00:11:18.158Z,2.70
2018-09-22T00:13:47.352Z,2.60
2018-09-22T00:16:16.049Z,2.43
2018-09-22T00:18:44.805Z,2.77
2018-09-22T00:21:13.652Z,3.90
2018-09-22T00:23:42.293Z,2.43
2018-09-22T00:26:10.989Z,3.10
2018-09-22T00:28:39.649Z,3.03
2018-09-22T00:31:08.337Z,2.70
2018-09-22T00:33:37.008Z,2.97
2018-09-22T00:36:05.758Z,2.40
2018-09-22T00:38:34.377Z,3.07
2018-09-22T00:41:03.080Z,2.70
2018-09-22T00:43:31.783Z,2.53
2018-09-22T00:46:00.482Z,3.00
2018-09-22T00:48:29.246Z,3.03
2018-09-22T00:50:57.988Z,2.47
2018-09-22T00:53:26.669Z,2.60
2018-09-22T00:55:55.401Z,2.20
2018-09-22T00:58:24.683Z,2.27
2018-09-22T01:00:53.650Z,2.53
2018-09-22T01:03:23.036Z,2.50
2018-09-22T01:05:51.741Z,3.10
2018-09-22T01:08:20.437Z,2.93
2018-09-22T01:10:49.166Z,2.67
2018-09-22T01:13:17.869Z,2.47
2018-09-22T01:15:46.574Z,2.97
2018-09-22T01:18:15.280Z,2.23
2018-09-22T01:20:43.977Z,2.07
2018-09-22T01:23:12.684Z,2.30
2018-09-22T01:25:41.384Z,2.40
2018-09-22T01:28:10.095Z,2.23
2018-09-22T01:30:38.816Z,2.70
2018-09-22T01:33:07.540Z,2.60
2018-09-22T01:35:36.222Z,2.43
2018-09-22T01:38:04.865Z,2.40
2018-09-22T01:40:34.119Z,2.60
2018-09-22T01:43:02.829Z,2.93
2018-09-22T01:45:31.595Z,2.60
2018-09-22T01:48:00.269Z,2.90
2018-09-22T01:50:28.972Z,3.43
2018-09-22T01:52:57.620Z,3.17
2018-09-22T01:55:26.284Z,3.10
2018-09-22T01:57:54.909Z,3.83
2018-09-22T02:00:23.650Z,3.77
2018-09-22T02:02:54.534Z,4.37
2018-09-22T02:05:23.406Z,3.70
2018-09-22T02:07:52.291Z,4.53
2018-09-22T02:10:21.108Z,4.37
2018-09-22T02:15:24.058Z,5.60
2018-09-22T02:17:52.821Z,4.93
2018-09-22T02:20:21.551Z,5.57
2018-09-22T02:22:50.339Z,5.53
2018-09-22T02:25:19.036Z,5.83
2018-09-22T02:27:47.782Z,5.40
2018-09-22T02:30:16.495Z,5.30
2018-09-22T02:32:45.264Z,5.73
2018-09-22T02:35:13.967Z,5.60
2018-09-22T02:37:42.610Z,5.17
2018-09-22T02:40:11.294Z,5.33
2018-09-22T02:42:39.970Z,5.07
2018-09-22T02:45:08.917Z,4.57
2018-09-22T02:47:37.617Z,5.70
2018-09-22T02:50:06.391Z,5.50
2018-09-22T02:52:35.116Z,5.43
2018-09-22T02:55:03.847Z,5.43
2018-09-22T02:57:32.568Z,5.37
2018-09-22T03:00:01.258Z,4.67
2018-09-22T03:02:29.940Z,5.27
2018-09-22T03:04:58.681Z,4.80
2018-09-22T03:07:27.377Z,5.10
2018-09-22T03:09:56.091Z,4.70
2018-09-22T03:12:24.762Z,4.70
2018-09-22T03:14:53.475Z,4.47
2018-09-22T03:17:22.267Z,4.43
2018-09-22T03:19:50.952Z,4.57
2018-09-22T03:22:19.673Z,4.30
2018-09-22T03:24:48.428Z,4.67
2018-09-22T03:27:17.147Z,4.40
2018-09-22T03:29:45.877Z,4.20
2018-09-22T03:32:14.597Z,4.00
2018-09-22T03:34:43.305Z,4.00
2018-09-22T03:37:12.002Z,4.30
2018-09-22T03:39:40.773Z,3.97
2018-09-22T03:42:09.481Z,4.37
2018-09-22T03:44:38.253Z,4.90
2018-09-22T03:47:07.346Z,4.03
2018-09-22T03:49:36.062Z,4.10
2018-09-22T03:52:04.796Z,4.07
2018-09-22T03:54:33.475Z,4.23
2018-09-22T03:57:02.163Z,3.83
2018-09-22T03:59:30.838Z,4.23
2018-09-22T04:01:59.519Z,4.30
2018-09-22T04:04:28.162Z,4.50
2018-09-22T04:06:56.849Z,4.40
2018-09-22T04:09:25.572Z,4.03
2018-09-22T04:11:54.230Z,4.87
2018-09-22T04:14:23.091Z,4.60
2018-09-22T04:16:51.755Z,5.03
2018-09-22T04:19:20.404Z,5.07
2018-09-22T04:21:49.143Z,3.83
2018-09-22T04:24:20.446Z,4.93
2018-09-22T04:26:50.383Z,4.77
2018-09-22T04:29:19.926Z,4.23
2018-09-22T04:31:48.859Z,4.87
2018-09-22T04:34:17.825Z,4.33
2018-09-22T04:36:46.511Z,3.97
2018-09-22T04:39:15.174Z,4.30
2018-09-22T04:41:45.119Z,4.77
2018-09-22T04:44:13.908Z,5.00
2018-09-22T04:46:42.635Z,4.70
2018-09-22T04:49:11.358Z,4.80
2018-09-22T04:51:40.027Z,4.27
2018-09-22T04:54:08.732Z,4.47
2018-09-22T04:56:37.438Z,5.03
2018-09-22T04:59:06.131Z,4.70
2018-09-22T05:01:34.843Z,5.17
2018-09-22T05:04:03.498Z,4.63
2018-09-22T05:06:32.198Z,4.93
2018-09-22T05:09:00.878Z,5.00
2018-09-22T05:11:29.616Z,4.60
2018-09-22T05:13:58.363Z,5.63
2018-09-22T05:16:27.029Z,4.27
2018-09-22T05:18:55.721Z,5.10
2018-09-22T05:21:24.393Z,4.80
2018-09-22T05:23:53.086Z,4.53
2018-09-22T05:26:21.775Z,4.80
2018-09-22T05:28:50.434Z,5.07
2018-09-22T05:31:19.144Z,4.47
2018-09-22T05:33:47.821Z,5.03
2018-09-22T05:36:16.474Z,4.77
2018-09-22T05:38:45.157Z,4.63
2018-09-22T05:41:13.853Z,4.37
2018-09-22T05:43:42.556Z,4.47
2018-09-22T05:46:11.308Z,4.57
2018-09-22T05:48:40.012Z,5.20
2018-09-22T05:51:08.758Z,5.10
2018-09-22T05:53:37.492Z,5.70
2018-09-22T05:56:06.299Z,4.83
2018-09-22T05:58:34.993Z,4.77
2018-09-22T06:01:03.730Z,4.27
2018-09-22T06:03:32.502Z,3.70
2018-09-22T06:06:01.195Z,3.53
2018-09-22T06:08:29.843Z,3.90
2018-09-22T06:10:58.591Z,4.23
2018-09-22T06:13:27.258Z,3.90
2018-09-22T06:15:55.920Z,4.07
2018-09-22T06:18:24.620Z,3.90
2018-09-22T06:20:53.334Z,3.63
2018-09-22T06:23:22.050Z,3.50
2018-09-22T06:25:50.719Z,3.87
2018-09-22T06:28:19.383Z,3.63
2018-09-22T06:30:48.114Z,3.70
2018-09-22T06:33:16.793Z,3.80
2018-09-22T06:35:45.514Z,3.67
2018-09-22T06:38:14.266Z,4.03
2018-09-22T06:40:43.010Z,3.70
2018-09-22T06:43:11.907Z,3.30
2018-09-22T06:45:40.668Z,2.93
2018-09-22T06:48:09.581Z,3.17
2018-09-22T06:50:38.322Z,3.70
2018-09-22T06:53:07.113Z,3.87
2018-09-22T06:55:35.824Z,3.60
2018-09-22T06:58:04.534Z,3.07
2018-09-22T07:00:33.219Z,4.13
2018-09-22T07:03:02.052Z,3.23
2018-09-22T07:05:30.833Z,3.50
2018-09-22T07:07:59.525Z,3.90
2018-09-22T07:10:28.303Z,3.80
2018-09-22T07:12:57.002Z,3.93
2018-09-22T07:15:25.754Z,3.80
2018-09-22T07:17:54.467Z,3.67
2018-09-22T07:20:23.176Z,3.60
2018-09-22T07:22:57.137Z,4.10
2018-09-22T07:25:25.905Z,4.03
2018-09-22T07:27:54.540Z,3.23
2018-09-22T07:30:23.245Z,3.53
2018-09-22T07:32:51.925Z,3.63
2018-09-22T07:35:20.672Z,3.83
2018-09-22T07:37:49.371Z,4.10
2018-09-22T07:40:18.187Z,3.40
2018-09-22T07:42:47.020Z,3.93
2018-09-22T07:45:15.764Z,3.70
2018-09-22T07:47:44.607Z,3.30
2018-09-22T07:50:13.261Z,2.80
2018-09-22T07:52:42.034Z,3.67
2018-09-22T07:55:10.702Z,3.33
2018-09-22T07:57:39.532Z,3.73
2018-09-22T08:00:08.474Z,3.30
2018-09-22T08:02:37.173Z,3.50
2018-09-22T08:05:06.622Z,3.70
2018-09-22T08:07:35.371Z,3.77
2018-09-22T08:10:04.237Z,3.20
2018-09-22T08:12:33.019Z,3.13
2018-09-22T08:15:01.703Z,3.53
2018-09-22T08:17:30.420Z,3.83
2018-09-22T08:19:59.066Z,3.10
2018-09-22T08:22:27.877Z,3.10
2018-09-22T08:24:56.568Z,3.40
2018-09-22T08:27:25.310Z,2.93
2018-09-22T08:29:54.015Z,3.70
2018-09-22T08:32:22.750Z,3.57
2018-09-22T08:34:51.417Z,3.70
2018-09-22T08:37:20.251Z,3.70
2018-09-22T08:39:48.905Z,3.27
2018-09-22T08:42:17.566Z,4.13
2018-09-22T08:44:46.338Z,4.30
2018-09-22T08:47:15.005Z,3.60
2018-09-22T08:49:43.732Z,3.63
2018-09-22T08:52:13.139Z,3.70
2018-09-22T08:54:41.846Z,3.90
2018-09-22T08:57:10.534Z,3.80
2018-09-22T08:59:39.254Z,3.80
2018-09-22T09:02:08.081Z,3.63
2018-09-22T09:04:36.830Z,3.57
2018-09-22T09:07:05.532Z,3.77
2018-09-22T09:09:34.240Z,3.70
2018-09-22T09:12:02.911Z,3.80
2018-09-22T09:14:31.663Z,3.37
2018-09-22T09:17:00.400Z,3.03
2018-09-22T09:19:29.122Z,3.13
2018-09-22T09:21:57.845Z,3.80
2018-09-22T09:24:26.536Z,3.03
2018-09-22T09:26:55.206Z,2.97
2018-09-22T09:29:23.931Z,2.77
2018-09-22T09:31:52.648Z,3.00
2018-09-22T09:34:21.319Z,3.00
2018-09-22T09:36:49.989Z,2.70
2018-09-22T09:39:18.806Z,2.90
2018-09-22T09:41:47.460Z,2.73
2018-09-22T09:44:16.124Z,2.70
2018-09-22T09:46:44.851Z,2.90
2018-09-22T09:49:13.554Z,2.60
2018-09-22T09:51:42.235Z,2.63
2018-09-22T09:54:10.938Z,2.43
2018-09-22T09:56:39.618Z,2.63
2018-09-22T09:59:08.290Z,2.90
2018-09-22T10:01:37.004Z,2.17
2018-09-22T10:04:05.758Z,1.73
2018-09-22T10:06:34.411Z,2.20
2018-09-22T10:09:03.270Z,2.20
2018-09-22T10:11:32.007Z,2.23
2018-09-22T10:14:00.690Z,1.70
2018-09-22T10:16:29.428Z,2.10
2018-09-22T10:18:58.162Z,2.37
2018-09-22T10:21:26.929Z,2.80
2018-09-22T10:23:55.645Z,2.20
2018-09-22T10:26:24.360Z,1.93
2018-09-22T10:28:53.091Z,1.97
2018-09-22T10:31:21.823Z,2.33
2018-09-22T10:33:50.520Z,2.07
2018-09-22T10:36:19.269Z,2.43
2018-09-22T10:38:48.020Z,2.13
2018-09-22T10:41:16.859Z,2.23
2018-09-22T10:43:45.552Z,2.50
2018-09-22T10:46:14.277Z,2.10
2018-09-22T10:48:43.031Z,1.93
2018-09-22T10:51:11.905Z,2.57
2018-09-22T10:53:40.639Z,2.57
2018-09-22T10:56:09.582Z,2.33
2018-09-22T10:58:38.507Z,2.27
2018-09-22T11:01:07.392Z,2.37
2018-09-22T11:03:36.235Z,2.23
2018-09-22T11:06:04.972Z,2.37
2018-09-22T11:08:33.869Z,2.20
2018-09-22T11:11:02.692Z,1.57
2018-09-22T11:13:31.531Z,2.43
2018-09-22T11:16:00.365Z,1.90
2018-09-22T11:18:29.711Z,1.60
2018-09-22T11:20:58.523Z,1.70
2018-09-22T11:23:27.211Z,1.73
2018-09-22T11:25:56.302Z,2.03
2018-09-22T11:28:25.024Z,2.00
2018-09-22T11:30:53.758Z,2.03
2018-09-22T11:33:22.621Z,2.03
2018-09-22T11:35:51.407Z,1.83
2018-09-22T11:38:20.337Z,1.90
2018-09-22T11:40:49.112Z,1.83
2018-09-22T11:43:17.939Z,1.50
2018-09-22T11:45:46.737Z,1.60
2018-09-22T16:38:42.539Z,3.23
2018-09-22T16:41:11.263Z,2.93
2018-09-22T16:43:40.050Z,2.67
2018-09-22T16:46:08.828Z,2.33
